createdAt,value
2019-05-09T00:01:54.992Z,8.44
2019-05-09T00:04:23.084Z,8.39
2019-05-09T00:06:49.790Z,8.39
2019-05-09T00:09:16.513Z,8.35
2019-05-09T00:11:43.972Z,8.37
2019-05-09T00:14:13.412Z,8.31
2019-05-09T00:16:39.444Z,8.34
2019-05-09T00:19:06.230Z,8.26
2019-05-09T00:21:34.854Z,8.27
2019-05-09T00:24:03.569Z,8.27
2019-05-09T00:26:30.182Z,8.27
2019-05-09T00:28:59.180Z,8.32
2019-05-09T00:31:27.666Z,8.24
2019-05-09T00:33:56.298Z,8.14
2019-05-09T00:36:23.292Z,8.12
2019-05-09T00:38:49.955Z,8.12
2019-05-09T00:41:16.571Z,8.09
2019-05-09T00:43:44.958Z,8.09
2019-05-09T00:46:14.100Z,8.11
2019-05-09T00:48:46.014Z,8.11
2019-05-09T00:51:14.056Z,8.05
2019-05-09T00:53:40.987Z,8.05
2019-05-09T00:56:07.503Z,8.06
2019-05-09T00:58:34.025Z,7.98
2019-05-09T01:01:00.870Z,7.90
2019-05-09T01:03:27.592Z,7.92
2019-05-09T01:05:54.301Z,7.89
2019-05-09T01:08:21.146Z,7.83
2019-05-09T01:10:47.772Z,7.78
2019-05-09T01:13:14.461Z,7.82
2019-05-09T01:15:43.949Z,7.81
2019-05-09T01:18:10.397Z,7.80
2019-05-09T01:20:37.351Z,7.79
2019-05-09T01:23:04.169Z,7.76
2019-05-09T01:25:33.355Z,7.77
2019-05-09T01:27:59.737Z,7.74
2019-05-09T01:30:26.563Z,7.69
2019-05-09T01:33:03.569Z,7.67
2019-05-09T01:35:30.657Z,7.67
2019-05-09T01:37:57.197Z,7.63
2019-05-09T01:40:24.010Z,7.60
2019-05-09T01:42:50.850Z,7.60
2019-05-09T01:45:17.516Z,7.63
2019-05-09T01:47:44.219Z,7.59
2019-05-09T01:50:11.043Z,7.58
2019-05-09T01:52:37.943Z,7.55
2019-05-09T01:55:05.412Z,7.51
2019-05-09T01:57:33.741Z,7.50
2019-05-09T02:00:00.839Z,7.50
2019-05-09T02:02:27.433Z,7.46
2019-05-09T02:04:54.180Z,7.47
2019-05-09T02:07:20.875Z,7.51
2019-05-09T02:09:47.793Z,7.54
2019-05-09T02:12:14.489Z,7.57
2019-05-09T02:14:43.735Z,7.55
2019-05-09T02:17:15.333Z,7.51
2019-05-09T02:19:44.039Z,7.58
2019-05-09T02:22:28.909Z,7.52
2019-05-09T02:24:55.622Z,7.53
2019-05-09T02:27:23.820Z,7.52
2019-05-09T02:29:50.717Z,7.54
2019-05-09T02:32:17.276Z,7.55
2019-05-09T02:34:44.344Z,7.56
2019-05-09T02:37:11.392Z,7.61
2019-05-09T02:39:39.410Z,7.61
2019-05-09T02:42:12.640Z,7.57
2019-05-09T02:44:34.962Z,7.54
2019-05-09T02:47:03.515Z,7.55
2019-05-09T02:49:30.129Z,7.54
2019-05-09T02:51:59.212Z,7.57
2019-05-09T02:54:29.436Z,7.57
2019-05-09T02:56:57.851Z,7.58
2019-05-09T02:59:29.746Z,7.56
2019-05-09T03:01:58.799Z,7.57
2019-05-09T03:04:28.308Z,7.60
2019-05-09T03:06:54.284Z,7.62
2019-05-09T03:09:20.914Z,7.63
2019-05-09T03:11:48.527Z,7.62
2019-05-09T03:14:15.594Z,7.63
2019-05-09T03:16:42.150Z,7.65
2019-05-09T03:19:09.325Z,7.65
2019-05-09T03:21:40.937Z,7.67
2019-05-09T03:24:09.739Z,7.69
2019-05-09T03:26:38.700Z,7.70
2019-05-09T03:29:22.600Z,7.68
2019-05-09T03:31:50.391Z,7.69
2019-05-09T03:34:19.590Z,7.71
2019-05-09T03:36:47.680Z,7.67
2019-05-09T03:39:14.310Z,7.69
2019-05-09T03:41:41.042Z,7.71
2019-05-09T03:44:07.628Z,7.72
2019-05-09T03:46:34.309Z,7.73
2019-05-09T03:49:02.849Z,7.76
2019-05-09T03:51:30.949Z,7.76
2019-05-09T03:53:57.785Z,7.81
2019-05-09T03:56:40.985Z,7.82
2019-05-09T03:59:08.407Z,7.82
2019-05-09T04:01:35.178Z,7.83
2019-05-09T04:04:01.937Z,7.82
2019-05-09T04:06:28.904Z,7.84
2019-05-09T04:08:55.349Z,7.82
2019-05-09T04:11:21.822Z,7.80
2019-05-09T04:14:02.346Z,7.85
2019-05-09T04:16:31.301Z,7.92
2019-05-09T04:18:58.293Z,7.99
2019-05-09T04:21:25.013Z,8.07
2019-05-09T04:23:51.978Z,8.10
2019-05-09T04:26:24.288Z,8.07
2019-05-09T04:28:50.792Z,8.10
2019-05-09T04:31:17.873Z,8.07
2019-05-09T04:33:47.365Z,8.11
2019-05-09T04:36:14.368Z,8.14
2019-05-09T04:38:41.924Z,8.11
2019-05-09T04:41:08.735Z,8.20
2019-05-09T04:43:39.462Z,8.26
2019-05-09T04:46:07.882Z,8.26
2019-05-09T04:48:37.370Z,8.25
2019-05-09T04:51:07.819Z,8.16
2019-05-09T04:53:34.827Z,8.20
2019-05-09T04:56:21.904Z,8.26
2019-05-09T04:58:48.509Z,8.29
2019-05-09T05:01:19.815Z,8.34
2019-05-09T05:03:48.015Z,8.36
2019-05-09T05:06:18.000Z,8.40
2019-05-09T05:08:43.210Z,8.43
2019-05-09T05:11:09.824Z,8.47
2019-05-09T05:13:38.392Z,8.50
2019-05-09T05:16:05.004Z,8.42
2019-05-09T05:18:31.632Z,8.42
2019-05-09T05:20:58.261Z,8.45
2019-05-09T05:23:32.799Z,8.43
2019-05-09T05:26:00.456Z,8.48
2019-05-09T05:28:27.858Z,8.52
2019-05-09T05:30:54.831Z,8.57
2019-05-09T05:33:38.576Z,8.62
2019-05-09T05:36:07.887Z,8.68
2019-05-09T05:38:34.945Z,8.71
2019-05-09T05:41:01.826Z,8.73
2019-05-09T05:43:40.536Z,8.78
2019-05-09T05:46:04.864Z,8.79
2019-05-09T05:48:33.536Z,8.80
2019-05-09T05:51:00.281Z,8.78
2019-05-09T05:53:27.730Z,8.82
2019-05-09T05:55:54.748Z,8.82
2019-05-09T05:58:21.483Z,8.78
2019-05-09T06:00:48.176Z,8.78
2019-05-09T06:03:15.050Z,8.76
2019-05-09T06:05:41.766Z,8.79
2019-05-09T06:08:08.458Z,8.80
2019-05-09T06:10:37.639Z,8.83
2019-05-09T06:13:03.700Z,8.83
2019-05-09T06:15:30.423Z,8.85
2019-05-09T06:17:57.937Z,8.82
2019-05-09T06:20:24.890Z,8.89
2019-05-09T06:22:51.420Z,8.91
2019-05-09T06:25:20.809Z,8.95
2019-05-09T06:27:48.255Z,8.90
2019-05-09T06:30:28.351Z,8.91
2019-05-09T06:32:57.831Z,8.94
2019-05-09T06:35:24.320Z,8.93
2019-05-09T06:37:51.143Z,8.98
2019-05-09T06:40:22.840Z,9.02
2019-05-09T06:42:51.218Z,9.06
2019-05-09T06:45:27.254Z,9.12
2019-05-09T06:47:53.957Z,9.19
2019-05-09T06:50:20.636Z,9.24
2019-05-09T06:52:47.948Z,9.27
2019-05-09T06:55:14.744Z,9.35
2019-05-09T06:57:43.020Z,9.38
2019-05-09T07:00:21.614Z,9.48
2019-05-09T07:02:58.345Z,9.53
2019-05-09T07:05:43.655Z,9.61
2019-05-09T07:08:14.933Z,9.63
2019-05-09T07:10:41.539Z,9.71
2019-05-09T07:13:08.571Z,9.78
2019-05-09T07:15:37.543Z,9.81
2019-05-09T07:18:04.053Z,9.83
2019-05-09T07:20:32.497Z,9.89
2019-05-09T07:22:59.101Z,9.93
2019-05-09T07:25:30.154Z,10.04
2019-05-09T07:27:58.674Z,10.09
2019-05-09T07:30:30.153Z,10.14
2019-05-09T07:32:57.970Z,10.23
2019-05-09T07:35:25.010Z,10.36
2019-05-09T07:37:52.106Z,10.42
2019-05-09T07:40:19.017Z,10.51
2019-05-09T07:42:47.762Z,10.64
2019-05-09T07:45:14.433Z,10.66
2019-05-09T07:47:41.089Z,10.66
2019-05-09T07:50:08.648Z,10.74
2019-05-09T07:52:35.716Z,10.78
2019-05-09T07:55:05.805Z,10.82
2019-05-09T07:57:32.437Z,10.85
2019-05-09T07:59:58.983Z,10.89
2019-05-09T08:02:25.422Z,10.89
2019-05-09T08:04:52.131Z,10.90
2019-05-09T08:07:18.816Z,10.89
2019-05-09T08:09:47.460Z,10.93
2019-05-09T08:12:13.993Z,10.97
2019-05-09T08:14:40.627Z,11.02
2019-05-09T08:17:08.597Z,10.99
2019-05-09T08:19:38.441Z,10.99
2019-05-09T08:22:07.786Z,11.01
2019-05-09T08:24:33.767Z,11.03
2019-05-09T08:27:01.527Z,10.99
2019-05-09T08:29:28.397Z,10.99
2019-05-09T08:31:55.080Z,11.00
2019-05-09T08:34:21.723Z,10.99
2019-05-09T08:36:48.693Z,11.02
2019-05-09T08:39:15.165Z,10.99
2019-05-09T08:41:41.849Z,10.99
2019-05-09T08:44:08.441Z,11.04
2019-05-09T08:46:37.565Z,11.12
2019-05-09T08:49:03.867Z,11.19
2019-05-09T08:51:47.532Z,11.18
2019-05-09T08:54:04.858Z,11.13
2019-05-09T08:56:32.848Z,11.14
2019-05-09T08:59:02.108Z,11.12
2019-05-09T09:01:48.089Z,11.12
2019-05-09T09:03:58.012Z,11.10
2019-05-09T09:06:24.653Z,11.04
2019-05-09T09:10:22.786Z,11.28
2019-05-09T09:16:02.961Z,11.26
2019-05-09T09:21:32.502Z,11.29
2019-05-09T09:23:59.337Z,11.39
2019-05-09T09:26:27.748Z,11.40
2019-05-09T09:28:54.498Z,11.54
2019-05-09T09:31:28.527Z,11.62
2019-05-09T09:33:58.320Z,11.64
2019-05-09T09:39:23.324Z,11.88
2019-05-09T09:41:50.590Z,11.82
2019-05-09T09:44:19.083Z,11.79
2019-05-09T09:50:27.640Z,11.78
2019-05-09T09:52:54.526Z,11.77
2019-05-09T09:55:21.245Z,11.62
2019-05-09T09:57:48.481Z,11.52
2019-05-09T10:00:52.211Z,11.61
2019-05-09T10:03:27.262Z,11.70
2019-05-09T10:09:48.108Z,11.79
2019-05-09T11:18:44.042Z,12.07
2019-05-09T11:25:11.021Z,12.03
2019-05-09T11:27:43.683Z,12.00
2019-05-09T11:30:11.181Z,12.02
2019-05-09T11:32:38.697Z,11.97
2019-05-09T11:35:28.684Z,12.00
2019-05-09T11:38:08.483Z,11.97
2019-05-09T11:40:37.856Z,11.88
2019-05-09T11:43:05.065Z,11.92
2019-05-09T11:45:32.473Z,11.93
2019-05-09T11:47:59.769Z,11.95
2019-05-09T11:50:27.051Z,11.96
2019-05-09T11:53:00.719Z,11.96
2019-05-09T11:59:31.776Z,12.00
2019-05-09T12:06:49.604Z,11.99
2019-05-09T12:34:09.254Z,12.26
2019-05-09T12:40:24.721Z,12.20
2019-05-09T12:42:51.357Z,12.20
2019-05-09T12:45:21.259Z,12.17
2019-05-09T12:47:48.209Z,12.19
2019-05-09T13:02:08.709Z,12.16
2019-05-09T13:04:48.007Z,12.18
2019-05-09T13:25:33.484Z,12.07
2019-05-09T13:28:29.301Z,12.55
2019-05-09T13:30:58.401Z,12.84
2019-05-09T13:34:31.903Z,13.15
2019-05-09T13:36:59.638Z,13.33
2019-05-09T13:39:27.966Z,13.07
2019-05-09T13:41:58.300Z,12.89
2019-05-09T13:44:24.670Z,12.78
2019-05-09T13:46:51.310Z,12.65
2019-05-09T13:49:19.319Z,12.59
2019-05-09T13:51:55.025Z,12.54
2019-05-09T13:54:15.585Z,12.46
2019-05-09T13:56:43.435Z,12.41
2019-05-09T13:59:10.123Z,12.41
2019-05-09T14:01:37.820Z,12.38
2019-05-09T14:04:04.852Z,12.34
2019-05-09T14:06:32.714Z,12.33
2019-05-09T14:09:00.005Z,12.33
2019-05-09T14:11:29.198Z,12.32
2019-05-09T14:13:57.594Z,12.31
2019-05-09T14:16:24.384Z,12.31
2019-05-09T14:18:50.950Z,12.34
2019-05-09T14:21:21.446Z,12.37
2019-05-09T14:24:00.297Z,12.40
2019-05-09T14:26:14.806Z,12.42
2019-05-09T14:28:41.438Z,12.45
2019-05-09T14:31:09.321Z,12.45
2019-05-09T14:33:36.018Z,12.45
2019-05-09T14:36:02.932Z,12.47
2019-05-09T14:38:29.403Z,12.49
2019-05-09T14:40:56.344Z,12.48
2019-05-09T14:43:22.985Z,12.51
2019-05-09T14:45:49.703Z,12.53
2019-05-09T14:48:18.758Z,12.55
2019-05-09T14:50:44.982Z,12.54
2019-05-09T14:53:11.760Z,12.53
2019-05-09T14:55:39.927Z,12.52
2019-05-09T14:58:07.841Z,12.53
2019-05-09T15:00:34.761Z,12.53
2019-05-09T15:03:01.335Z,12.49
2019-05-09T15:05:28.014Z,12.48
2019-05-09T15:07:54.796Z,12.47
2019-05-09T15:10:22.001Z,12.45
2019-05-09T15:12:48.852Z,12.43
2019-05-09T15:15:15.695Z,12.46
2019-05-09T15:17:42.462Z,12.47
2019-05-09T15:20:09.478Z,12.49
2019-05-09T15:22:38.389Z,12.51
2019-05-09T15:25:04.753Z,12.50
2019-05-09T15:27:31.648Z,12.42
2019-05-09T15:29:58.554Z,12.40
2019-05-09T15:32:25.213Z,12.41
2019-05-09T15:34:51.937Z,12.37
2019-05-09T15:37:18.898Z,12.33
2019-05-09T15:39:48.286Z,12.31
2019-05-09T15:42:14.866Z,12.28
2019-05-09T15:44:41.494Z,12.18
2019-05-09T15:47:18.028Z,12.13
2019-05-09T15:49:44.205Z,12.09
2019-05-09T15:52:10.718Z,12.02
2019-05-09T15:54:38.652Z,11.99
2019-05-09T15:57:05.643Z,11.93
2019-05-09T15:59:32.178Z,11.95
2019-05-09T16:01:58.732Z,11.95
2019-05-09T16:04:25.246Z,11.94
2019-05-09T16:06:52.343Z,11.93
2019-05-09T16:09:19.565Z,11.92
2019-05-09T16:11:48.382Z,11.92
2019-05-09T16:14:15.272Z,11.93
2019-05-09T16:16:42.107Z,11.93
2019-05-09T16:19:09.108Z,11.93
2019-05-09T16:21:38.110Z,11.92
2019-05-09T16:24:04.396Z,11.91
2019-05-09T16:26:31.161Z,11.89
2019-05-09T16:28:58.230Z,11.85
2019-05-09T16:31:24.941Z,11.82
2019-05-09T16:33:51.782Z,11.77
2019-05-09T16:36:18.513Z,11.70
2019-05-09T16:38:48.440Z,11.68
2019-05-09T16:41:13.723Z,11.64
2019-05-09T16:43:40.414Z,11.57
2019-05-09T16:46:07.640Z,11.50
2019-05-09T16:48:34.629Z,11.50
2019-05-09T16:51:04.258Z,11.50
2019-05-09T16:53:29.957Z,11.51
2019-05-09T16:55:57.843Z,11.51
2019-05-09T16:58:24.717Z,11.50
2019-05-09T17:00:52.614Z,11.46
2019-05-09T17:03:19.311Z,11.43
2019-05-09T17:05:45.997Z,11.41
2019-05-09T17:08:12.847Z,11.39
2019-05-09T17:10:39.568Z,11.41
2019-05-09T17:13:07.819Z,11.39
2019-05-09T17:15:34.841Z,11.43
2019-05-09T17:18:01.943Z,11.43
2019-05-09T17:20:30.625Z,11.43
2019-05-09T17:23:13.480Z,11.41
2019-05-09T17:25:32.135Z,11.39
2019-05-09T17:27:59.517Z,11.41
2019-05-09T17:30:28.669Z,11.41
2019-05-09T17:32:58.131Z,11.41
2019-05-09T17:35:24.598Z,11.43
2019-05-09T17:37:51.281Z,11.43
2019-05-09T17:40:19.270Z,11.41
2019-05-09T17:42:46.376Z,11.33
2019-05-09T17:45:13.750Z,11.29
2019-05-09T17:47:40.369Z,11.28
2019-05-09T17:50:07.838Z,11.25
2019-05-09T17:52:34.822Z,11.29
2019-05-09T17:55:01.799Z,11.33
2019-05-09T17:57:28.499Z,11.34
2019-05-09T17:59:55.096Z,11.30
2019-05-09T18:02:22.008Z,11.24
2019-05-09T18:04:48.743Z,11.20
2019-05-09T18:07:17.836Z,11.17
2019-05-09T18:09:44.156Z,11.13
2019-05-09T18:12:10.741Z,11.13
2019-05-09T18:14:38.281Z,11.13
2019-05-09T18:17:05.612Z,11.09
2019-05-09T18:19:32.299Z,11.09
2019-05-09T18:21:58.857Z,11.12
2019-05-09T18:24:25.562Z,11.13
2019-05-09T18:26:52.332Z,11.13
2019-05-09T18:29:19.345Z,11.12
2019-05-09T18:32:00.227Z,11.13
2019-05-09T18:34:28.658Z,11.07
2019-05-09T18:36:55.651Z,11.01
2019-05-09T18:39:22.130Z,10.97
2019-05-09T18:41:49.047Z,10.98
2019-05-09T18:44:18.125Z,10.94
2019-05-09T18:46:44.454Z,10.97
2019-05-09T18:49:14.614Z,10.97
2019-05-09T18:51:41.508Z,10.95
2019-05-09T18:54:08.700Z,10.88
2019-05-09T18:56:35.403Z,10.81
2019-05-09T18:59:02.161Z,10.81
2019-05-09T19:04:28.287Z,10.78
2019-05-09T19:06:55.058Z,10.81
2019-05-09T19:12:10.371Z,10.84
2019-05-09T19:14:42.058Z,10.85
2019-05-09T19:17:49.352Z,10.85
2019-05-09T19:24:07.746Z,10.70
2019-05-09T19:26:36.011Z,10.72
2019-05-09T19:29:05.939Z,10.68
2019-05-09T19:31:32.603Z,10.67
2019-05-09T19:34:08.467Z,10.68
2019-05-09T19:36:39.935Z,10.68
2019-05-09T19:39:08.156Z,10.70
2019-05-09T19:41:36.064Z,10.62
2019-05-09T19:44:06.098Z,10.63
2019-05-09T19:46:32.928Z,10.61
2019-05-09T19:48:59.733Z,10.63
2019-05-09T19:51:26.441Z,10.61
2019-05-09T19:53:53.315Z,10.64
2019-05-09T19:56:20.200Z,10.61
2019-05-09T19:58:46.849Z,10.58
2019-05-09T20:01:13.501Z,10.57
2019-05-09T20:03:40.583Z,10.56
2019-05-09T20:06:07.590Z,10.59
2019-05-09T20:08:34.544Z,10.60
2019-05-09T20:11:44.066Z,10.65
2019-05-09T20:14:14.524Z,10.66
2019-05-09T20:20:13.396Z,10.61
2019-05-09T20:22:52.065Z,10.58
2019-05-09T20:25:09.927Z,10.58
2019-05-09T20:33:37.878Z,10.51
2019-05-09T20:36:13.476Z,10.48
2019-05-09T20:38:40.135Z,10.43
2019-05-09T20:41:07.298Z,10.39
2019-05-09T20:43:33.969Z,10.38
2019-05-09T20:46:02.909Z,10.38
2019-05-09T20:48:29.805Z,10.37
2019-05-09T20:51:37.992Z,10.38
2019-05-09T20:54:20.038Z,10.37
2019-05-09T20:56:35.961Z,10.33
2019-05-09T20:59:02.898Z,10.31
2019-05-09T21:01:29.505Z,10.30
2019-05-09T21:04:00.150Z,10.30
2019-05-09T21:06:24.717Z,10.32
2019-05-09T21:08:51.450Z,10.34
2019-05-09T21:11:18.169Z,10.37
2019-05-09T21:13:48.265Z,10.39
2019-05-09T21:16:13.289Z,10.32
2019-05-09T21:18:39.920Z,10.34
2019-05-09T21:21:06.822Z,10.35
2019-05-09T21:23:33.640Z,10.35
2019-05-09T21:26:00.297Z,10.29
2019-05-09T21:28:28.376Z,10.32
2019-05-09T21:30:56.498Z,10.28
2019-05-09T21:33:23.199Z,10.24
2019-05-09T21:35:49.722Z,10.23
2019-05-09T21:38:16.310Z,10.21
2019-05-09T21:40:44.681Z,10.21
2019-05-09T21:43:11.483Z,10.15
2019-05-09T21:45:38.250Z,10.17
2019-05-09T21:48:04.973Z,10.16
2019-05-09T21:50:31.608Z,10.17
2019-05-09T21:52:58.262Z,10.16
2019-05-09T21:55:25.008Z,10.12
2019-05-09T21:57:51.584Z,10.11
2019-05-09T22:00:25.013Z,10.09
2019-05-09T22:02:51.903Z,10.01
2019-05-09T22:05:19.128Z,10.00
2019-05-09T22:07:45.703Z,10.01
2019-05-09T22:10:12.957Z,10.01
2019-05-09T22:12:39.675Z,10.04
2019-05-09T22:15:06.980Z,10.08
2019-05-09T22:17:37.870Z,10.09
2019-05-09T22:20:10.233Z,10.08
2019-05-09T22:22:36.915Z,10.11
2019-05-09T22:25:06.727Z,10.14
2019-05-09T22:27:34.293Z,10.15
2019-05-09T22:30:01.059Z,10.13
2019-05-09T22:32:29.981Z,10.19
2019-05-09T22:34:56.448Z,10.16
2019-05-09T22:37:23.152Z,10.11
2019-05-09T22:39:49.614Z,10.11
2019-05-09T22:42:16.574Z,10.09
2019-05-09T22:44:43.172Z,10.08
2019-05-09T22:47:10.374Z,10.05
2019-05-09T22:49:36.926Z,10.08
2019-05-09T22:52:03.706Z,10.05
2019-05-09T22:54:30.385Z,10.05
2019-05-09T22:56:56.901Z,10.04
2019-05-09T22:59:23.356Z,10.05
2019-05-09T23:01:49.973Z,10.03
2019-05-09T23:04:16.690Z,9.97
2019-05-09T23:06:43.383Z,10.02
2019-05-09T23:09:09.879Z,10.04
2019-05-09T23:11:36.465Z,10.07
2019-05-09T23:14:03.705Z,10.05
2019-05-09T23:16:32.581Z,10.06
2019-05-09T23:18:59.175Z,10.07
2019-05-09T23:21:27.531Z,10.04
2019-05-09T23:23:58.969Z,9.97
2019-05-09T23:26:25.577Z,9.99
2019-05-09T23:28:52.281Z,9.95
2019-05-09T23:31:20.819Z,9.89
2019-05-09T23:33:47.595Z,9.92
2019-05-09T23:36:14.215Z,9.86
2019-05-09T23:38:59.705Z,9.90
2019-05-09T23:41:26.542Z,9.86
2019-05-09T23:43:53.228Z,9.84
2019-05-09T23:46:20.425Z,9.84
2019-05-09T23:48:46.933Z,9.87
2019-05-09T23:51:13.363Z,9.88
2019-05-09T23:53:40.169Z,9.85
2019-05-09T23:56:25.524Z,9.77
2019-05-09T23:59:10.185Z,9.77
